Time;durP1;ratioP1;P1;durP2;ratioP2;P2;SDS_P1;SDS_P2;PMS_P1;PMS_P2;Temp;Humidity;BMP_temperature;BMP_pressure;BME280_temperature;BME280_humidity;BME280_pressure;Samples;Min_cycle;Max_cycle;Signal;HPM_P1;HPM_P2
2022/02/09 00:00:29;;;;;;;20.48;12.80;;;3.50;99.90;;;;;;4954978;28;20030;-82
2022/02/09 00:03:29;;;;;;;21.17;12.30;;;4.00;99.90;;;;;;4955237;28;20419;-82
2022/02/09 00:06:00;;;;;;;17.35;11.63;;;3.60;99.90;;;;;;4953593;28;20507;-82
2022/02/09 00:08:26;;;;;;;17.45;11.40;;;3.50;99.90;;;;;;4940843;28;20053;-82
2022/02/09 00:10:58;;;;;;;18.02;11.65;;;4.30;99.90;;;;;;4954251;28;20062;-82
2022/02/09 00:14:02;;;;;;;17.70;11.85;;;4.00;99.90;;;;;;4954542;28;20032;-82
2022/02/09 00:19:21;;;;;;;19.45;13.00;;;3.50;99.90;;;;;;4933183;29;20085;-82
2022/02/09 00:22:09;;;;;;;19.40;12.63;;;3.30;99.90;;;;;;4932673;29;20448;-83
2022/02/09 00:35:37;;;;;;;18.05;11.77;;;3.30;99.90;;;;;;4932233;29;20362;-82
2022/02/09 01:56:35;;;;;;;17.33;9.88;;;3.10;99.90;;;;;;4944173;28;20090;-83
2022/02/09 01:59:02;;;;;;;13.75;9.30;;;3.20;99.90;;;;;;4956665;28;20036;-83
2022/02/09 02:01:28;;;;;;;13.10;9.02;;;3.20;99.90;;;;;;4956674;28;20500;-81
2022/02/09 02:03:53;;;;;;;16.33;10.30;;;3.10;99.90;;;;;;4957493;28;20118;-82
2022/02/09 02:06:20;;;;;;;15.85;10.23;;;3.70;99.90;;;;;;4956939;28;20459;-82
2022/02/09 02:08:49;;;;;;;19.63;10.70;;;3.20;99.90;;;;;;4957252;28;20023;-82
2022/02/09 02:11:25;;;;;;;14.65;9.48;;;3.20;99.90;;;;;;4957038;28;20027;-82
2022/02/09 02:16:26;;;;;;;14.93;9.52;;;3.70;99.90;;;;;;4958246;28;20031;-82
2022/02/09 02:19:09;;;;;;;13.50;8.70;;;3.20;99.90;;;;;;4956521;28;20054;-80
2022/02/09 02:24:37;;;;;;;12.00;8.27;;;3.30;99.90;;;;;;4957389;28;20498;-82
2022/02/09 02:29:54;;;;;;;12.93;8.13;;;3.20;99.90;;;;;;4956775;28;20027;-82
2022/02/09 02:35:30;;;;;;;13.93;8.70;;;3.20;99.90;;;;;;4952408;28;20035;-82
2022/02/09 02:46:29;;;;;;;12.80;7.90;;;3.30;99.90;;;;;;4955314;28;20146;-82
2022/02/09 02:59:38;;;;;;;11.48;7.53;;;3.10;99.90;;;;;;4956256;28;20054;-82
2022/02/09 03:13:20;;;;;;;12.65;7.80;;;3.10;99.90;;;;;;4896622;29;20140;-83
2022/02/09 03:15:54;;;;;;;13.55;8.05;;;3.50;99.90;;;;;;4896634;29;20040;-82
2022/02/09 03:21:17;;;;;;;12.77;8.20;;;3.00;99.90;;;;;;4896396;29;20068;-82
2022/02/09 03:23:53;;;;;;;12.40;8.02;;;3.00;99.90;;;;;;4897091;29;20117;-82
2022/02/09 03:42:53;;;;;;;10.70;7.10;;;3.30;99.90;;;;;;4881586;29;20536;-82
2022/02/09 03:48:25;;;;;;;9.65;7.00;;;2.90;99.90;;;;;;4900209;29;20036;-83
2022/02/09 03:51:14;;;;;;;11.07;6.82;;;3.40;99.90;;;;;;4889283;29;20024;-82
2022/02/09 03:58:53;;;;;;;11.77;7.38;;;3.40;99.90;;;;;;4906853;29;20424;-82
2022/02/09 04:01:20;;;;;;;11.95;6.97;;;2.90;99.90;;;;;;4899552;29;20025;-82
2022/02/09 04:03:46;;;;;;;13.52;7.00;;;2.90;99.90;;;;;;4900202;29;20035;-82
2022/02/09 04:06:12;;;;;;;11.60;6.82;;;2.90;99.90;;;;;;4926141;28;20047;-82
2022/02/09 04:08:46;;;;;;;9.57;6.93;;;2.90;99.90;;;;;;4954901;28;20031;-83
2022/02/09 04:11:23;;;;;;;11.70;6.80;;;2.90;99.90;;;;;;4954949;28;20157;-83
2022/02/09 04:14:28;;;;;;;9.27;6.13;;;2.90;99.90;;;;;;4950559;29;20035;-82
2022/02/09 04:16:57;;;;;;;10.50;6.72;;;2.90;99.90;;;;;;4951196;29;20440;-83
2022/02/09 04:59:54;;;;;;;8.15;5.88;;;2.80;99.90;;;;;;4848505;29;20416;-83
2022/02/09 05:21:53;;;;;;;8.73;5.63;;;2.90;99.90;;;;;;4901299;29;20060;-82
2022/02/09 05:29:23;;;;;;;8.45;5.75;;;2.90;99.90;;;;;;4901443;29;20068;-82
2022/02/09 05:31:50;;;;;;;7.65;5.30;;;2.80;99.90;;;;;;4897597;29;20037;-82
2022/02/09 05:34:16;;;;;;;8.95;5.28;;;3.40;99.90;;;;;;4901328;29;20028;-82
2022/02/09 05:36:41;;;;;;;8.73;5.43;;;2.80;99.90;;;;;;4934039;29;20058;-81
2022/02/09 05:39:07;;;;;;;9.40;5.55;;;2.70;99.90;;;;;;4957818;28;20043;-82
2022/02/09 05:41:37;;;;;;;9.98;5.63;;;3.20;99.90;;;;;;4941048;29;20041;-82
2022/02/09 05:44:03;;;;;;;10.55;5.80;;;2.70;99.90;;;;;;4957229;28;20035;-82
2022/02/09 05:54:49;;;;;;;8.30;5.53;;;2.70;99.90;;;;;;4907279;29;20028;-82
2022/02/09 05:59:47;;;;;;;8.73;5.75;;;2.70;99.90;;;;;;4901526;29;20489;-82
2022/02/09 06:02:16;;;;;;;9.40;6.03;;;2.70;99.90;;;;;;4899019;29;20075;-82
2022/02/09 06:04:42;;;;;;;8.48;6.10;;;2.70;99.90;;;;;;4900757;29;20128;-82
2022/02/09 06:07:07;;;;;;;9.75;6.13;;;2.60;99.90;;;;;;4901822;29;20127;-83
2022/02/09 06:09:35;;;;;;;9.65;6.40;;;2.60;99.90;;;;;;4902177;29;20638;-81
2022/02/09 06:12:26;;;;;;;8.30;6.22;;;2.60;99.90;;;;;;4901840;29;20113;-82
2022/02/09 06:20:17;;;;;;;7.43;5.05;;;2.70;99.90;;;;;;4896064;29;20131;-82
2022/02/09 06:22:43;;;;;;;9.43;5.65;;;2.70;99.90;;;;;;4901067;29;20123;-82
2022/02/09 06:25:09;;;;;;;8.45;5.05;;;2.70;99.90;;;;;;4901663;29;20041;-82
2022/02/09 06:27:34;;;;;;;9.55;5.28;;;2.60;99.90;;;;;;4901806;29;20048;-82
2022/02/09 06:30:00;;;;;;;6.70;5.22;;;2.60;99.90;;;;;;4905691;29;20489;-82
2022/02/09 06:32:27;;;;;;;6.93;5.45;;;2.60;99.90;;;;;;4956667;28;20408;-82
2022/02/09 06:34:53;;;;;;;10.55;5.45;;;3.20;99.90;;;;;;4955745;28;20038;-82
2022/02/09 06:39:55;;;;;;;7.95;5.22;;;2.70;99.90;;;;;;4956180;28;20027;-82
2022/02/09 06:42:23;;;;;;;6.75;4.95;;;2.70;99.90;;;;;;4956563;28;20038;-82
2022/02/09 06:44:57;;;;;;;7.90;4.75;;;2.80;99.90;;;;;;4956353;28;20034;-82
2022/02/09 06:47:26;;;;;;;9.25;5.47;;;2.80;99.90;;;;;;4941667;28;20419;-82
2022/02/09 06:50:02;;;;;;;9.98;5.30;;;3.50;99.90;;;;;;4955466;29;20027;-82
2022/02/09 06:52:27;;;;;;;7.97;4.88;;;3.10;99.90;;;;;;4956904;28;20031;-83
2022/02/09 06:57:57;;;;;;;10.35;5.05;;;3.70;99.90;;;;;;4956304;28;20122;-82
2022/02/09 07:00:22;;;;;;;7.40;5.00;;;3.10;99.90;;;;;;4956119;28;20042;-82
2022/02/09 07:02:49;;;;;;;9.77;5.15;;;3.80;99.90;;;;;;4953820;28;20028;-85
2022/02/09 07:05:15;;;;;;;8.25;4.78;;;3.10;99.90;;;;;;4956158;28;20036;-82
2022/02/09 07:07:41;;;;;;;8.88;4.82;;;3.10;99.90;;;;;;4955362;29;20031;-82
2022/02/09 07:10:08;;;;;;;9.95;6.00;;;3.50;99.90;;;;;;4953452;28;20039;-82
2022/02/09 07:12:35;;;;;;;20.15;8.90;;;3.20;99.90;;;;;;4955883;28;20027;-82
2022/02/09 07:15:02;;;;;;;12.60;6.95;;;3.90;99.90;;;;;;4955554;28;20400;-82
2022/02/09 07:17:28;;;;;;;11.10;7.18;;;3.70;99.90;;;;;;4955484;28;20554;-82
2022/02/09 07:19:58;;;;;;;10.13;6.97;;;3.30;99.90;;;;;;4954643;28;20063;-82
2022/02/09 07:22:26;;;;;;;11.82;7.95;;;3.40;99.90;;;;;;4956692;28;20039;-82
2022/02/09 07:25:03;;;;;;;13.27;7.53;;;3.40;99.90;;;;;;4955479;28;20491;-82
2022/02/09 07:27:51;;;;;;;10.90;6.93;;;3.40;99.90;;;;;;4954876;28;20038;-82
2022/02/09 07:30:16;;;;;;;14.30;6.75;;;4.00;99.90;;;;;;4955395;28;20437;-82
2022/02/09 07:32:42;;;;;;;9.20;6.38;;;3.50;99.90;;;;;;4954972;28;20147;-82
2022/02/09 07:35:08;;;;;;;10.25;5.95;;;3.50;99.90;;;;;;4956499;28;20059;-83
2022/02/09 07:37:33;;;;;;;10.75;6.30;;;4.00;99.90;;;;;;4955176;29;20035;-82
2022/02/09 07:40:01;;;;;;;10.60;6.32;;;3.70;99.90;;;;;;4955084;28;20481;-82
2022/02/09 07:42:29;;;;;;;9.45;6.05;;;3.70;99.90;;;;;;4955519;28;20031;-82
2022/02/09 07:50:39;;;;;;;13.27;6.53;;;4.00;99.90;;;;;;4903949;29;20078;-82
2022/02/09 07:55:47;;;;;;;10.65;6.05;;;4.80;99.90;;;;;;4914754;29;20067;-82
2022/02/09 07:58:13;;;;;;;12.07;6.38;;;4.80;99.90;;;;;;4901842;29;20124;-82
2022/02/09 08:00:38;;;;;;;10.43;6.10;;;4.40;99.90;;;;;;4916865;29;20123;-82
2022/02/09 08:03:05;;;;;;;15.18;6.40;;;4.60;99.90;;;;;;4917188;29;20047;-82
2022/02/09 08:05:32;;;;;;;15.32;7.22;;;4.80;99.90;;;;;;4917069;29;20036;-82
2022/02/09 08:07:58;;;;;;;15.38;7.28;;;4.90;99.90;;;;;;4914832;29;20078;-82
2022/02/09 08:24:11;;;;;;;13.50;6.88;;;12.70;99.90;;;;;;4928365;29;20091;-82
2022/02/09 08:26:48;;;;;;;11.23;6.63;;;14.00;99.90;;;;;;4954773;28;20035;-82
2022/02/09 08:34:08;;;;;;;11.20;6.53;;;19.40;99.90;;;;;;4954912;28;20118;-83
2022/02/09 08:36:34;;;;;;;12.07;6.22;;;20.60;99.90;;;;;;4954364;28;20055;-82
2022/02/09 08:39:00;;;;;;;10.15;6.45;;;21.20;99.90;;;;;;4954091;28;20031;-83
2022/02/09 08:41:26;;;;;;;12.20;7.03;;;21.10;99.90;;;;;;4954556;28;20118;-84
2022/02/09 08:43:52;;;;;;;10.85;7.20;;;21.00;99.90;;;;;;4952417;29;20075;-83
2022/02/09 08:46:18;;;;;;;11.15;6.80;;;22.40;99.90;;;;;;4955979;28;20090;-83
2022/02/09 08:48:44;;;;;;;9.07;7.10;;;21.90;99.90;;;;;;4954285;28;20031;-83
2022/02/09 08:51:10;;;;;;;14.25;7.00;;;21.40;99.90;;;;;;4954628;28;20074;-83
2022/02/09 08:53:35;;;;;;;10.65;6.68;;;22.40;99.90;;;;;;4954552;28;20054;-83
2022/02/09 08:56:04;;;;;;;11.45;6.63;;;22.40;99.90;;;;;;4953349;28;20440;-83
2022/02/09 08:58:29;;;;;;;12.00;7.30;;;21.80;99.90;;;;;;4938238;29;20028;-83
2022/02/09 09:01:07;;;;;;;10.32;7.18;;;23.00;99.90;;;;;;4954627;28;20028;-83
2022/02/09 09:03:41;;;;;;;12.25;6.72;;;22.70;99.90;;;;;;4954449;28;20476;-83
2022/02/09 09:06:08;;;;;;;15.20;6.90;;;23.70;99.90;;;;;;4953917;28;20034;-83
2022/02/09 09:17:42;;;;;;;8.50;5.47;;;26.60;99.90;;;;;;4953498;29;20101;-81
2022/02/09 09:31:26;;;;;;;7.93;4.85;;;26.70;99.90;;;;;;4953851;28;20067;-81
2022/02/09 10:34:15;;;;;;;7.38;3.05;;;27.40;99.90;;;;;;4956862;28;20134;-81
2022/02/09 10:36:51;;;;;;;5.85;3.45;;;25.20;99.90;;;;;;4956410;28;20027;-82
2022/02/09 10:39:21;;;;;;;7.18;3.35;;;25.40;99.90;;;;;;4956763;28;20089;-81
2022/02/09 10:41:50;;;;;;;9.52;3.50;;;27.00;99.90;;;;;;4941827;29;20396;-81
2022/02/09 10:44:21;;;;;;;5.85;3.13;;;26.10;99.90;;;;;;4956863;28;20472;-81
2022/02/09 10:46:57;;;;;;;7.95;3.85;;;27.80;99.90;;;;;;4955726;29;20451;-81
2022/02/09 10:49:28;;;;;;;9.30;4.15;;;27.10;99.90;;;;;;4955897;28;20031;-81
2022/02/09 10:54:27;;;;;;;5.53;3.25;;;27.30;99.90;;;;;;4955765;28;20420;-81
2022/02/09 10:56:58;;;;;;;5.93;3.40;;;26.20;99.90;;;;;;4956419;28;20023;-81
2022/02/09 10:59:26;;;;;;;8.35;4.10;;;28.20;99.90;;;;;;4941225;28;20027;-81
2022/02/09 11:01:54;;;;;;;8.77;4.10;;;30.20;99.90;;;;;;4955224;29;20027;-81
2022/02/09 11:04:20;;;;;;;9.15;4.18;;;30.90;99.90;;;;;;4957897;28;20059;-81
2022/02/09 11:06:47;;;;;;;7.82;3.72;;;30.50;99.90;;;;;;4954866;28;20500;-81
2022/02/09 11:09:18;;;;;;;6.43;3.63;;;29.10;99.90;;;;;;4955549;28;20118;-81
2022/02/09 11:11:45;;;;;;;9.65;4.03;;;31.00;99.90;;;;;;4956241;28;20035;-81
2022/02/09 11:14:15;;;;;;;6.88;3.85;;;30.40;99.90;;;;;;4956016;28;20051;-82
2022/02/09 11:16:54;;;;;;;6.50;3.42;;;30.80;99.90;;;;;;4954765;29;20035;-81
2022/02/09 11:19:25;;;;;;;5.45;3.28;;;28.70;99.90;;;;;;4956974;28;20098;-81
2022/02/09 11:22:10;;;;;;;9.45;4.03;;;30.90;99.90;;;;;;4955617;28;20050;-82
2022/02/09 11:24:43;;;;;;;6.80;3.78;;;31.10;99.90;;;;;;4955370;28;20027;-81
2022/02/09 11:27:18;;;;;;;5.38;3.40;;;31.30;99.90;;;;;;4955914;28;20039;-81
2022/02/09 11:29:49;;;;;;;7.20;3.53;;;29.80;99.90;;;;;;4955612;28;20035;-81
2022/02/09 11:32:26;;;;;;;6.13;3.50;;;30.90;99.90;;;;;;4955432;28;20092;-81
2022/02/09 11:35:30;;;;;;;7.97;3.53;;;30.50;99.90;;;;;;4930576;29;20035;-81
2022/02/09 11:43:34;;;;;;;6.82;3.47;;;28.90;99.90;;;;;;4955652;28;20045;-81
2022/02/09 12:00:14;;;;;;;7.47;3.67;;;29.00;99.90;;;;;;4955002;28;20492;-81
2022/02/09 12:11:27;;;;;;;6.75;3.50;;;30.20;99.90;;;;;;4951072;28;20034;-81
2022/02/09 12:14:00;;;;;;;6.28;3.38;;;29.60;99.90;;;;;;4953880;28;20035;-81
2022/02/09 12:19:11;;;;;;;8.85;3.42;;;29.00;99.90;;;;;;4954361;28;20031;-81
2022/02/09 12:21:45;;;;;;;7.82;3.80;;;28.00;99.90;;;;;;4954606;28;20034;-81
2022/02/09 12:24:20;;;;;;;8.13;3.78;;;27.50;99.90;;;;;;4954456;28;20086;-81
2022/02/09 12:27:07;;;;;;;6.18;3.97;;;28.20;99.90;;;;;;4954449;28;20049;-82
2022/02/09 12:29:41;;;;;;;6.18;3.75;;;28.20;99.90;;;;;;4940936;28;20031;-82
2022/02/09 12:32:16;;;;;;;6.38;3.90;;;27.50;99.90;;;;;;4954433;28;20480;-82
2022/02/09 12:34:59;;;;;;;6.97;3.83;;;27.60;99.90;;;;;;4952925;29;20025;-82
2022/02/09 12:37:28;;;;;;;6.53;3.80;;;27.20;99.90;;;;;;4954792;28;20539;-82
2022/02/09 12:39:56;;;;;;;7.15;3.97;;;28.00;99.90;;;;;;4954281;28;20182;-82
2022/02/09 12:42:28;;;;;;;6.82;3.90;;;27.70;99.90;;;;;;4954527;28;20058;-82
2022/02/09 12:45:03;;;;;;;8.30;4.05;;;27.10;99.90;;;;;;4954527;28;20070;-82
2022/02/09 12:47:39;;;;;;;6.38;3.70;;;26.60;99.90;;;;;;4940493;28;20518;-82
2022/02/09 12:50:14;;;;;;;8.35;4.22;;;26.10;99.90;;;;;;4953648;28;20554;-82
2022/02/09 12:52:42;;;;;;;7.55;4.35;;;26.00;99.90;;;;;;4952360;29;20398;-82
2022/02/09 12:55:17;;;;;;;6.40;3.90;;;25.70;99.90;;;;;;4954453;28;20490;-82
2022/02/09 12:57:52;;;;;;;6.05;4.07;;;26.70;99.90;;;;;;4954160;28;20056;-82
2022/02/09 13:00:34;;;;;;;8.52;4.03;;;26.50;99.90;;;;;;4953941;28;20038;-82
2022/02/09 13:03:03;;;;;;;7.78;3.88;;;25.50;99.90;;;;;;4954348;28;20031;-82
2022/02/09 13:05:31;;;;;;;7.80;4.05;;;26.40;99.90;;;;;;4953798;28;20107;-82
2022/02/09 13:08:01;;;;;;;8.10;4.00;;;27.20;99.90;;;;;;4953663;28;20046;-82
2022/02/09 13:10:33;;;;;;;7.65;3.95;;;27.00;99.90;;;;;;4954687;28;20023;-82
2022/02/09 13:13:06;;;;;;;7.93;3.72;;;25.90;99.90;;;;;;4954210;28;20066;-81
2022/02/09 13:15:41;;;;;;;9.43;4.05;;;26.00;99.90;;;;;;4954131;28;20050;-82
2022/02/09 14:06:24;;;;;;;6.25;3.92;;;22.50;99.90;;;;;;4900216;29;20032;-80
2022/02/09 14:11:08;;;;;;;6.22;3.72;;;23.30;99.90;;;;;;4897570;29;20032;-81
2022/02/09 14:58:10;;;;;;;10.48;4.90;;;20.70;99.90;;;;;;4956141;28;20062;-81
2022/02/09 15:00:50;;;;;;;9.85;4.65;;;20.20;99.90;;;;;;4955671;28;20110;-80
2022/02/09 15:08:43;;;;;;;10.98;4.80;;;20.60;99.90;;;;;;4941686;28;20458;-81
2022/02/09 15:11:33;;;;;;;12.50;4.45;;;21.00;99.90;;;;;;4955938;28;20027;-81
2022/02/09 15:22:06;;;;;;;9.23;4.80;;;19.30;99.90;;;;;;4955734;28;20023;-81
2022/02/09 15:24:39;;;;;;;9.30;4.93;;;19.00;99.90;;;;;;4956352;28;20051;-81
2022/02/09 15:27:06;;;;;;;9.52;4.93;;;19.40;99.90;;;;;;4955515;28;20118;-80
2022/02/09 15:29:36;;;;;;;10.00;4.55;;;19.20;99.90;;;;;;4955249;28;20373;-81
2022/02/09 15:32:05;;;;;;;8.57;5.00;;;19.40;99.90;;;;;;4955100;28;20452;-80
2022/02/09 15:34:37;;;;;;;10.48;4.70;;;19.80;99.90;;;;;;4955493;28;20035;-81
2022/02/09 15:39:41;;;;;;;8.77;4.68;;;18.80;99.90;;;;;;4955227;28;20019;-81
2022/02/09 16:07:40;;;;;;;7.47;3.95;;;17.20;99.90;;;;;;4952632;28;20131;-81
2022/02/09 16:09:47;;;;;;;8.30;4.15;;;16.90;99.90;;;;;;4952654;28;20035;-81
2022/02/09 16:22:29;;;;;;;9.18;4.43;;;17.00;99.90;;;;;;4954092;28;20467;-81
2022/02/09 16:46:24;;;;;;;9.50;4.40;;;14.80;99.90;;;;;;4955855;28;20038;-82
2022/02/09 16:51:21;;;;;;;10.02;5.13;;;14.20;99.90;;;;;;4953797;28;20522;-81
2022/02/09 16:56:49;;;;;;;9.32;5.03;;;13.80;99.90;;;;;;4939810;28;20030;-81
2022/02/09 17:21:09;;;;;;;10.30;5.10;;;13.10;99.90;;;;;;4953472;28;20102;-81
2022/02/09 17:23:34;;;;;;;6.00;4.50;;;13.10;99.90;;;;;;4954760;28;20443;-81
2022/02/09 17:26:00;;;;;;;8.40;4.63;;;12.90;99.90;;;;;;4952820;28;20038;-81
2022/02/09 17:28:27;;;;;;;12.07;4.93;;;12.90;99.90;;;;;;4938875;29;20429;-82
2022/02/09 17:33:45;;;;;;;9.95;4.43;;;12.70;99.90;;;;;;4953784;28;20031;-81
2022/02/09 17:57:50;;;;;;;8.82;4.57;;;12.10;99.90;;;;;;4954232;28;20020;-81
2022/02/09 18:00:17;;;;;;;9.13;5.20;;;11.70;99.90;;;;;;4938777;29;20043;-81
2022/02/09 18:02:46;;;;;;;11.80;5.80;;;11.70;99.90;;;;;;4953952;28;20385;-81
2022/02/09 18:05:19;;;;;;;10.10;4.65;;;11.60;99.90;;;;;;4953842;28;20031;-81
2022/02/09 18:07:48;;;;;;;14.40;4.90;;;11.50;99.90;;;;;;4952683;29;20047;-81
2022/02/09 18:11:12;;;;;;;13.55;5.78;;;11.50;99.90;;;;;;4953614;28;20032;-81
2022/02/09 18:31:34;;;;;;;9.38;4.63;;;11.00;99.90;;;;;;4956436;28;20488;-81
2022/02/09 18:37:42;;;;;;;9.15;4.72;;;10.90;99.90;;;;;;4956452;28;20400;-81
2022/02/09 18:44:57;;;;;;;8.82;5.10;;;11.10;99.90;;;;;;4956987;28;20058;-81
2022/02/09 19:03:36;;;;;;;8.20;4.65;;;10.60;99.90;;;;;;4955931;28;20423;-81
2022/02/09 19:06:15;;;;;;;11.68;4.55;;;10.50;99.90;;;;;;4956198;28;20042;-81
2022/02/09 19:14:14;;;;;;;11.35;4.85;;;10.40;99.90;;;;;;4954016;28;20562;-82
2022/02/09 19:30:08;;;;;;;10.05;4.88;;;10.30;99.90;;;;;;4955393;28;20067;-81
2022/02/09 19:46:46;;;;;;;11.70;5.35;;;10.30;99.90;;;;;;4897033;29;20056;-82
2022/02/09 19:49:21;;;;;;;9.73;4.95;;;10.60;99.90;;;;;;4898411;29;20037;-82
2022/02/09 19:52:07;;;;;;;10.48;4.97;;;10.10;99.90;;;;;;4898260;29;20185;-82
2022/02/09 19:54:48;;;;;;;12.50;4.97;;;10.60;99.90;;;;;;4898770;29;20045;-83
2022/02/09 19:57:15;;;;;;;10.48;5.20;;;10.20;99.90;;;;;;4898536;29;20047;-83
2022/02/09 19:59:42;;;;;;;9.70;4.80;;;10.30;99.90;;;;;;4898728;29;20036;-82
2022/02/09 20:02:09;;;;;;;10.18;5.15;;;10.40;99.90;;;;;;4896523;29;20157;-83
2022/02/09 20:04:36;;;;;;;9.93;5.10;;;10.20;99.90;;;;;;4896774;29;20460;-83
2022/02/09 20:07:03;;;;;;;11.02;4.85;;;10.50;99.90;;;;;;4897739;29;20407;-82
2022/02/09 20:09:28;;;;;;;12.93;4.68;;;10.10;99.90;;;;;;4898566;29;20043;-83
2022/02/09 20:11:55;;;;;;;12.50;5.57;;;10.20;99.90;;;;;;4897463;29;20525;-84
2022/02/09 20:14:20;;;;;;;13.00;5.38;;;10.40;99.90;;;;;;4898373;29;20119;-83
2022/02/09 20:16:46;;;;;;;8.10;4.35;;;10.10;99.90;;;;;;4895043;29;20189;-82
2022/02/09 20:19:12;;;;;;;11.43;5.10;;;10.10;99.90;;;;;;4926352;29;20062;-83
2022/02/09 20:21:38;;;;;;;13.48;7.60;;;10.30;99.90;;;;;;4953797;28;20102;-84
2022/02/09 20:24:07;;;;;;;8.73;4.97;;;10.10;99.90;;;;;;4954942;28;20039;-84
2022/02/09 20:26:33;;;;;;;12.43;5.80;;;10.10;99.90;;;;;;4954007;28;20412;-84
2022/02/09 20:29:07;;;;;;;10.52;5.38;;;10.00;99.90;;;;;;4954053;28;20059;-84
2022/02/09 20:31:48;;;;;;;12.05;5.25;;;10.10;99.90;;;;;;4951599;29;20565;-83
2022/02/09 20:34:26;;;;;;;12.27;5.45;;;10.10;99.90;;;;;;4953766;28;20045;-83
2022/02/09 20:36:52;;;;;;;11.30;5.20;;;10.10;99.90;;;;;;4954682;28;20035;-83
2022/02/09 20:39:24;;;;;;;12.82;5.20;;;10.50;99.90;;;;;;4953490;28;20023;-82
2022/02/09 20:41:49;;;;;;;13.63;5.70;;;10.10;99.90;;;;;;4954766;28;20031;-83
2022/02/09 20:46:44;;;;;;;14.30;5.43;;;10.10;99.90;;;;;;4954211;29;20023;-82
2022/02/09 20:49:09;;;;;;;6.20;4.22;;;10.10;99.90;;;;;;4953480;28;20518;-83
2022/02/09 20:51:35;;;;;;;13.05;5.50;;;10.10;99.90;;;;;;4954051;28;20078;-83
2022/02/09 20:54:01;;;;;;;12.93;5.95;;;10.50;99.90;;;;;;4954225;28;20415;-83
2022/02/09 20:56:27;;;;;;;10.68;5.82;;;10.10;99.90;;;;;;4954678;28;20209;-84
2022/02/09 20:58:59;;;;;;;10.45;5.30;;;10.10;99.90;;;;;;4953436;29;20063;-83
2022/02/09 21:01:42;;;;;;;10.38;4.32;;;10.10;99.90;;;;;;4954494;28;20520;-84
2022/02/09 21:04:11;;;;;;;14.18;5.75;;;10.10;99.90;;;;;;4953710;28;20395;-83
2022/02/09 21:06:53;;;;;;;11.38;4.68;;;10.60;99.90;;;;;;4954040;28;20503;-83
2022/02/09 21:14:47;;;;;;;11.82;4.20;;;10.10;99.90;;;;;;4954344;28;20483;-83
2022/02/09 21:56:34;;;;;;;12.73;5.05;;;9.90;99.90;;;;;;4942213;28;20027;-81
2022/02/09 22:28:09;;;;;;;12.18;3.33;;;9.70;99.90;;;;;;4956784;28;20036;-82
2022/02/09 22:55:54;;;;;;;11.32;4.63;;;9.60;99.90;;;;;;4825775;29;20046;-81
2022/02/09 22:58:19;;;;;;;10.70;4.30;;;9.40;99.90;;;;;;4828801;29;20082;-81
2022/02/09 23:04:07;;;;;;;15.20;4.18;;;9.80;99.90;;;;;;4826633;29;20046;-82
2022/02/09 23:17:09;;;;;;;12.38;4.68;;;9.30;99.90;;;;;;4844329;29;20053;-81
2022/02/09 23:23:26;;;;;;;11.25;4.07;;;9.20;99.90;;;;;;4837077;29;20131;-81
